sensor_id;sensor_type;location;lat;lon;timestamp;temperature;humidity
15959;DHT22;8078;47.822;9.402;2023-07-29T00:00:58;15.90;99.90
15959;DHT22;8078;47.822;9.402;2023-07-29T00:03:23;15.90;99.90
15959;DHT22;8078;47.822;9.402;2023-07-29T00:05:49;16.00;99.90
15959;DHT22;8078;47.822;9.402;2023-07-29T00:08:15;15.90;99.90
15959;DHT22;8078;47.822;9.402;2023-07-29T00:10:40;16.00;99.90
15959;DHT22;8078;47.822;9.402;2023-07-29T00:13:06;16.00;99.90
15959;DHT22;8078;47.822;9.402;2023-07-29T00:15:32;16.00;99.90
15959;DHT22;8078;47.822;9.402;2023-07-29T00:17:58;16.00;99.90
15959;DHT22;8078;47.822;9.402;2023-07-29T00:20:23;16.10;99.90
15959;DHT22;8078;47.822;9.402;2023-07-29T00:22:49;16.10;99.90
15959;DHT22;8078;47.822;9.402;2023-07-29T00:25:17;16.10;99.90
15959;DHT22;8078;47.822;9.402;2023-07-29T00:27:43;16.10;99.90
15959;DHT22;8078;47.822;9.402;2023-07-29T00:30:09;16.10;99.90
15959;DHT22;8078;47.822;9.402;2023-07-29T00:32:35;16.10;99.90
15959;DHT22;8078;47.822;9.402;2023-07-29T00:35:01;16.10;99.90
15959;DHT22;8078;47.822;9.402;2023-07-29T00:37:27;16.10;99.90
15959;DHT22;8078;47.822;9.402;2023-07-29T00:39:53;16.10;99.90
15959;DHT22;8078;47.822;9.402;2023-07-29T00:42:19;16.00;99.90
15959;DHT22;8078;47.822;9.402;2023-07-29T00:44:44;16.00;99.90
15959;DHT22;8078;47.822;9.402;2023-07-29T00:47:11;16.00;99.90
15959;DHT22;8078;47.822;9.402;2023-07-29T00:49:38;16.00;99.90
15959;DHT22;8078;47.822;9.402;2023-07-29T00:52:03;16.00;99.90
15959;DHT22;8078;47.822;9.402;2023-07-29T00:54:29;16.00;99.90
15959;DHT22;8078;47.822;9.402;2023-07-29T00:56:55;15.90;99.90
15959;DHT22;8078;47.822;9.402;2023-07-29T00:59:20;15.90;99.90
15959;DHT22;8078;47.822;9.402;2023-07-29T01:01:46;16.00;99.90
15959;DHT22;8078;47.822;9.402;2023-07-29T01:04:12;16.00;99.90
15959;DHT22;8078;47.822;9.402;2023-07-29T01:07:12;15.90;99.90
15959;DHT22;8078;47.822;9.402;2023-07-29T01:09:44;15.90;99.90
15959;DHT22;8078;47.822;9.402;2023-07-29T01:12:14;15.90;99.90
15959;DHT22;8078;47.822;9.402;2023-07-29T01:14:55;15.90;99.90
15959;DHT22;8078;47.822;9.402;2023-07-29T01:17:31;15.90;99.90
15959;DHT22;8078;47.822;9.402;2023-07-29T01:20:13;15.90;99.90
15959;DHT22;8078;47.822;9.402;2023-07-29T01:22:39;15.90;99.90
15959;DHT22;8078;47.822;9.402;2023-07-29T01:25:06;16.00;99.90
15959;DHT22;8078;47.822;9.402;2023-07-29T01:27:31;15.90;99.90
15959;DHT22;8078;47.822;9.402;2023-07-29T01:29:58;15.90;99.90
15959;DHT22;8078;47.822;9.402;2023-07-29T01:37:52;16.00;99.90
15959;DHT22;8078;47.822;9.402;2023-07-29T01:40:19;16.00;99.90
15959;DHT22;8078;47.822;9.402;2023-07-29T01:42:45;16.00;99.90
15959;DHT22;8078;47.822;9.402;2023-07-29T01:45:11;16.00;99.90
15959;DHT22;8078;47.822;9.402;2023-07-29T01:47:37;16.00;99.90
15959;DHT22;8078;47.822;9.402;2023-07-29T01:50:06;16.00;99.90
15959;DHT22;8078;47.822;9.402;2023-07-29T01:52:32;16.00;99.90
15959;DHT22;8078;47.822;9.402;2023-07-29T01:54:57;15.90;99.90
15959;DHT22;8078;47.822;9.402;2023-07-29T01:57:23;15.90;99.90
15959;DHT22;8078;47.822;9.402;2023-07-29T01:59:48;15.80;99.90
15959;DHT22;8078;47.822;9.402;2023-07-29T02:02:14;15.80;99.90
15959;DHT22;8078;47.822;9.402;2023-07-29T02:04:39;15.70;99.90
15959;DHT22;8078;47.822;9.402;2023-07-29T02:07:05;15.70;99.90
15959;DHT22;8078;47.822;9.402;2023-07-29T02:09:30;15.70;99.90
15959;DHT22;8078;47.822;9.402;2023-07-29T02:11:57;15.70;99.90
15959;DHT22;8078;47.822;9.402;2023-07-29T02:14:23;15.70;99.90
15959;DHT22;8078;47.822;9.402;2023-07-29T02:16:49;15.70;99.90
15959;DHT22;8078;47.822;9.402;2023-07-29T02:19:15;15.70;99.90
15959;DHT22;8078;47.822;9.402;2023-07-29T02:21:41;15.70;99.90
15959;DHT22;8078;47.822;9.402;2023-07-29T02:24:06;15.70;99.90
15959;DHT22;8078;47.822;9.402;2023-07-29T02:26:32;15.70;99.90
15959;DHT22;8078;47.822;9.402;2023-07-29T02:28:57;15.70;99.90
15959;DHT22;8078;47.822;9.402;2023-07-29T02:31:24;15.70;99.90
15959;DHT22;8078;47.822;9.402;2023-07-29T02:33:51;15.70;99.90
15959;DHT22;8078;47.822;9.402;2023-07-29T02:36:17;15.70;99.90
15959;DHT22;8078;47.822;9.402;2023-07-29T02:38:43;15.70;99.90
15959;DHT22;8078;47.822;9.402;2023-07-29T02:41:09;15.80;99.90
15959;DHT22;8078;47.822;9.402;2023-07-29T02:43:38;15.80;99.90
15959;DHT22;8078;47.822;9.402;2023-07-29T02:46:03;15.80;99.90
15959;DHT22;8078;47.822;9.402;2023-07-29T02:48:30;15.80;99.90
15959;DHT22;8078;47.822;9.402;2023-07-29T02:50:56;15.80;99.90
15959;DHT22;8078;47.822;9.402;2023-07-29T02:53:24;15.80;99.90
15959;DHT22;8078;47.822;9.402;2023-07-29T02:55:50;15.80;99.90
15959;DHT22;8078;47.822;9.402;2023-07-29T02:58:16;15.90;99.90
15959;DHT22;8078;47.822;9.402;2023-07-29T03:00:41;16.10;99.90
15959;DHT22;8078;47.822;9.402;2023-07-29T03:03:10;16.30;99.90
15959;DHT22;8078;47.822;9.402;2023-07-29T03:05:36;16.50;99.90
15959;DHT22;8078;47.822;9.402;2023-07-29T03:08:02;16.60;99.90
15959;DHT22;8078;47.822;9.402;2023-07-29T03:10:28;16.60;99.90
15959;DHT22;8078;47.822;9.402;2023-07-29T03:12:54;16.60;99.90
15959;DHT22;8078;47.822;9.402;2023-07-29T03:15:23;16.40;99.90
15959;DHT22;8078;47.822;9.402;2023-07-29T03:17:50;16.30;99.90
15959;DHT22;8078;47.822;9.402;2023-07-29T03:20:16;16.30;99.90
15959;DHT22;8078;47.822;9.402;2023-07-29T03:22:43;16.20;99.90
15959;DHT22;8078;47.822;9.402;2023-07-29T03:25:09;16.10;99.90
15959;DHT22;8078;47.822;9.402;2023-07-29T03:27:34;16.00;99.90
15959;DHT22;8078;47.822;9.402;2023-07-29T03:30:05;16.10;99.90
15959;DHT22;8078;47.822;9.402;2023-07-29T03:32:31;16.10;99.90
15959;DHT22;8078;47.822;9.402;2023-07-29T03:34:56;16.00;99.90
15959;DHT22;8078;47.822;9.402;2023-07-29T03:37:22;16.00;99.90
15959;DHT22;8078;47.822;9.402;2023-07-29T03:39:47;16.00;99.90
15959;DHT22;8078;47.822;9.402;2023-07-29T03:42:13;16.10;99.90
15959;DHT22;8078;47.822;9.402;2023-07-29T03:44:39;16.10;99.90
15959;DHT22;8078;47.822;9.402;2023-07-29T03:47:05;16.30;99.90
15959;DHT22;8078;47.822;9.402;2023-07-29T03:49:31;16.50;99.90
15959;DHT22;8078;47.822;9.402;2023-07-29T03:51:57;16.50;99.90
15959;DHT22;8078;47.822;9.402;2023-07-29T03:54:22;16.60;99.90
15959;DHT22;8078;47.822;9.402;2023-07-29T03:56:48;16.80;99.90
15959;DHT22;8078;47.822;9.402;2023-07-29T03:59:13;16.70;99.90
15959;DHT22;8078;47.822;9.402;2023-07-29T04:01:39;16.60;99.90
15959;DHT22;8078;47.822;9.402;2023-07-29T04:04:05;16.50;99.90
15959;DHT22;8078;47.822;9.402;2023-07-29T04:06:30;16.40;99.90
15959;DHT22;8078;47.822;9.402;2023-07-29T04:08:56;16.30;99.90
15959;DHT22;8078;47.822;9.402;2023-07-29T04:11:23;16.30;99.90
15959;DHT22;8078;47.822;9.402;2023-07-29T04:13:48;16.30;99.90
15959;DHT22;8078;47.822;9.402;2023-07-29T04:16:14;16.30;99.90
15959;DHT22;8078;47.822;9.402;2023-07-29T04:18:39;16.30;99.90
15959;DHT22;8078;47.822;9.402;2023-07-29T04:21:05;16.40;99.90
15959;DHT22;8078;47.822;9.402;2023-07-29T04:23:30;16.40;99.90
15959;DHT22;8078;47.822;9.402;2023-07-29T04:25:56;16.40;99.90
15959;DHT22;8078;47.822;9.402;2023-07-29T04:28:21;16.30;99.90
15959;DHT22;8078;47.822;9.402;2023-07-29T04:30:47;16.30;99.90
15959;DHT22;8078;47.822;9.402;2023-07-29T04:33:12;16.30;99.90
15959;DHT22;8078;47.822;9.402;2023-07-29T04:35:38;16.30;99.90
15959;DHT22;8078;47.822;9.402;2023-07-29T04:38:04;16.20;99.90
15959;DHT22;8078;47.822;9.402;2023-07-29T04:40:32;16.10;99.90
15959;DHT22;8078;47.822;9.402;2023-07-29T04:42:57;16.10;99.90
15959;DHT22;8078;47.822;9.402;2023-07-29T04:45:31;16.00;99.90
15959;DHT22;8078;47.822;9.402;2023-07-29T04:47:57;15.90;99.90
15959;DHT22;8078;47.822;9.402;2023-07-29T04:50:23;15.90;99.90
15959;DHT22;8078;47.822;9.402;2023-07-29T04:52:49;15.80;99.90
15959;DHT22;8078;47.822;9.402;2023-07-29T04:55:14;15.60;99.90
15959;DHT22;8078;47.822;9.402;2023-07-29T04:57:40;15.50;99.90
15959;DHT22;8078;47.822;9.402;2023-07-29T05:00:06;15.30;99.90
15959;DHT22;8078;47.822;9.402;2023-07-29T05:02:32;15.30;99.90
15959;DHT22;8078;47.822;9.402;2023-07-29T05:04:57;15.20;99.90
15959;DHT22;8078;47.822;9.402;2023-07-29T05:07:23;15.30;99.90
15959;DHT22;8078;47.822;9.402;2023-07-29T05:09:48;15.30;99.90
15959;DHT22;8078;47.822;9.402;2023-07-29T05:12:14;15.20;99.90
15959;DHT22;8078;47.822;9.402;2023-07-29T05:14:40;15.20;99.90
15959;DHT22;8078;47.822;9.402;2023-07-29T05:17:06;15.10;99.90
15959;DHT22;8078;47.822;9.402;2023-07-29T05:19:31;15.30;99.90
15959;DHT22;8078;47.822;9.402;2023-07-29T05:21:57;15.40;99.90
15959;DHT22;8078;47.822;9.402;2023-07-29T05:24:23;15.50;99.90
15959;DHT22;8078;47.822;9.402;2023-07-29T05:26:49;15.50;99.90
15959;DHT22;8078;47.822;9.402;2023-07-29T05:29:15;15.50;99.90
15959;DHT22;8078;47.822;9.402;2023-07-29T05:31:41;15.40;99.90
15959;DHT22;8078;47.822;9.402;2023-07-29T05:34:06;15.40;99.90
15959;DHT22;8078;47.822;9.402;2023-07-29T05:36:32;15.40;99.90
15959;DHT22;8078;47.822;9.402;2023-07-29T05:38:58;15.30;99.90
15959;DHT22;8078;47.822;9.402;2023-07-29T05:41:24;15.30;99.90
15959;DHT22;8078;47.822;9.402;2023-07-29T05:43:51;15.40;99.90
15959;DHT22;8078;47.822;9.402;2023-07-29T05:46:16;15.50;99.90
15959;DHT22;8078;47.822;9.402;2023-07-29T05:48:42;15.50;99.90
15959;DHT22;8078;47.822;9.402;2023-07-29T05:51:08;15.50;99.90
15959;DHT22;8078;47.822;9.402;2023-07-29T05:53:33;15.60;99.90
15959;DHT22;8078;47.822;9.402;2023-07-29T05:55:59;15.60;99.90
15959;DHT22;8078;47.822;9.402;2023-07-29T05:58:24;15.60;99.90
15959;DHT22;8078;47.822;9.402;2023-07-29T06:00:50;15.50;99.90
15959;DHT22;8078;47.822;9.402;2023-07-29T06:03:15;15.50;99.90
15959;DHT22;8078;47.822;9.402;2023-07-29T06:05:41;15.50;99.90
15959;DHT22;8078;47.822;9.402;2023-07-29T06:08:06;15.50;99.90
15959;DHT22;8078;47.822;9.402;2023-07-29T06:10:34;15.60;99.90
15959;DHT22;8078;47.822;9.402;2023-07-29T06:12:59;15.70;99.90
15959;DHT22;8078;47.822;9.402;2023-07-29T06:15:25;15.80;99.90
15959;DHT22;8078;47.822;9.402;2023-07-29T06:17:50;16.00;99.90
15959;DHT22;8078;47.822;9.402;2023-07-29T06:20:16;16.10;99.90
15959;DHT22;8078;47.822;9.402;2023-07-29T06:22:42;16.20;99.90
15959;DHT22;8078;47.822;9.402;2023-07-29T06:25:08;16.40;99.90
15959;DHT22;8078;47.822;9.402;2023-07-29T06:27:34;16.50;99.90
15959;DHT22;8078;47.822;9.402;2023-07-29T06:29:59;16.80;99.90
15959;DHT22;8078;47.822;9.402;2023-07-29T06:32:25;16.70;99.90
15959;DHT22;8078;47.822;9.402;2023-07-29T06:34:51;16.70;99.90
15959;DHT22;8078;47.822;9.402;2023-07-29T06:37:19;16.60;99.90
15959;DHT22;8078;47.822;9.402;2023-07-29T06:39:44;16.60;99.90
15959;DHT22;8078;47.822;9.402;2023-07-29T06:42:10;16.60;99.90
15959;DHT22;8078;47.822;9.402;2023-07-29T06:44:35;16.50;99.90
15959;DHT22;8078;47.822;9.402;2023-07-29T06:47:01;16.60;99.90
15959;DHT22;8078;47.822;9.402;2023-07-29T06:49:27;16.70;99.90
15959;DHT22;8078;47.822;9.402;2023-07-29T06:51:52;16.50;99.90
15959;DHT22;8078;47.822;9.402;2023-07-29T06:54:18;16.50;99.90
15959;DHT22;8078;47.822;9.402;2023-07-29T06:56:43;16.70;99.90
15959;DHT22;8078;47.822;9.402;2023-07-29T06:59:09;16.80;99.90
15959;DHT22;8078;47.822;9.402;2023-07-29T07:01:34;16.90;99.90
15959;DHT22;8078;47.822;9.402;2023-07-29T07:04:00;16.90;99.90
15959;DHT22;8078;47.822;9.402;2023-07-29T07:06:25;16.70;99.90
15959;DHT22;8078;47.822;9.402;2023-07-29T07:08:51;16.90;99.90
15959;DHT22;8078;47.822;9.402;2023-07-29T07:11:18;17.00;99.90
15959;DHT22;8078;47.822;9.402;2023-07-29T07:13:43;17.20;99.90
15959;DHT22;8078;47.822;9.402;2023-07-29T07:16:09;17.20;99.90
15959;DHT22;8078;47.822;9.402;2023-07-29T07:18:35;17.20;99.90
15959;DHT22;8078;47.822;9.402;2023-07-29T07:21:00;17.20;99.90
15959;DHT22;8078;47.822;9.402;2023-07-29T07:23:26;17.10;99.90
15959;DHT22;8078;47.822;9.402;2023-07-29T07:25:51;17.20;99.90
15959;DHT22;8078;47.822;9.402;2023-07-29T07:28:17;17.10;99.90
15959;DHT22;8078;47.822;9.402;2023-07-29T07:30:43;17.20;99.90
15959;DHT22;8078;47.822;9.402;2023-07-29T07:33:08;17.10;99.90
15959;DHT22;8078;47.822;9.402;2023-07-29T07:35:34;17.00;99.90
15959;DHT22;8078;47.822;9.402;2023-07-29T07:37:59;17.00;99.90
15959;DHT22;8078;47.822;9.402;2023-07-29T07:40:27;16.90;99.90
15959;DHT22;8078;47.822;9.402;2023-07-29T07:42:53;17.00;99.90
15959;DHT22;8078;47.822;9.402;2023-07-29T07:45:19;17.10;99.90
15959;DHT22;8078;47.822;9.402;2023-07-29T07:47:44;17.10;99.90
15959;DHT22;8078;47.822;9.402;2023-07-29T07:50:10;17.30;99.90
15959;DHT22;8078;47.822;9.402;2023-07-29T07:52:36;17.50;99.90
15959;DHT22;8078;47.822;9.402;2023-07-29T07:55:01;17.50;99.90
15959;DHT22;8078;47.822;9.402;2023-07-29T07:57:27;17.70;99.90
15959;DHT22;8078;47.822;9.402;2023-07-29T07:59:53;17.90;99.90
15959;DHT22;8078;47.822;9.402;2023-07-29T08:02:18;18.10;99.90
15959;DHT22;8078;47.822;9.402;2023-07-29T08:04:44;18.10;99.90
15959;DHT22;8078;47.822;9.402;2023-07-29T08:07:09;18.10;99.90
15959;DHT22;8078;47.822;9.402;2023-07-29T08:09:35;18.00;99.90
15959;DHT22;8078;47.822;9.402;2023-07-29T08:12:01;17.80;99.90
15959;DHT22;8078;47.822;9.402;2023-07-29T08:14:26;17.90;99.90
15959;DHT22;8078;47.822;9.402;2023-07-29T08:16:52;17.80;99.90
15959;DHT22;8078;47.822;9.402;2023-07-29T08:19:17;17.80;99.90
15959;DHT22;8078;47.822;9.402;2023-07-29T08:21:43;17.80;99.90
15959;DHT22;8078;47.822;9.402;2023-07-29T08:24:08;17.90;99.90
15959;DHT22;8078;47.822;9.402;2023-07-29T08:26:34;18.30;99.90
15959;DHT22;8078;47.822;9.402;2023-07-29T08:29:00;18.30;99.90
15959;DHT22;8078;47.822;9.402;2023-07-29T08:31:25;18.50;99.90
15959;DHT22;8078;47.822;9.402;2023-07-29T08:33:51;18.40;99.90
15959;DHT22;8078;47.822;9.402;2023-07-29T08:36:16;18.60;99.90
15959;DHT22;8078;47.822;9.402;2023-07-29T08:38:42;18.60;99.90
15959;DHT22;8078;47.822;9.402;2023-07-29T08:41:16;18.60;99.90
15959;DHT22;8078;47.822;9.402;2023-07-29T08:43:59;18.40;99.90
15959;DHT22;8078;47.822;9.402;2023-07-29T08:46:28;18.30;99.90
15959;DHT22;8078;47.822;9.402;2023-07-29T08:48:55;18.70;99.90
15959;DHT22;8078;47.822;9.402;2023-07-29T08:51:21;18.90;99.90
15959;DHT22;8078;47.822;9.402;2023-07-29T08:53:49;19.40;99.90
15959;DHT22;8078;47.822;9.402;2023-07-29T08:56:15;19.40;99.90
15959;DHT22;8078;47.822;9.402;2023-07-29T08:58:41;19.20;99.90
15959;DHT22;8078;47.822;9.402;2023-07-29T09:01:07;19.20;99.90
15959;DHT22;8078;47.822;9.402;2023-07-29T09:03:33;19.40;99.90
15959;DHT22;8078;47.822;9.402;2023-07-29T09:05:59;19.50;99.90
15959;DHT22;8078;47.822;9.402;2023-07-29T09:08:26;19.30;99.90
15959;DHT22;8078;47.822;9.402;2023-07-29T09:10:52;19.20;99.90
15959;DHT22;8078;47.822;9.402;2023-07-29T09:13:19;19.60;99.90
15959;DHT22;8078;47.822;9.402;2023-07-29T09:15:45;19.90;99.90
15959;DHT22;8078;47.822;9.402;2023-07-29T09:18:13;19.90;99.90
15959;DHT22;8078;47.822;9.402;2023-07-29T09:20:39;20.10;99.90
15959;DHT22;8078;47.822;9.402;2023-07-29T09:23:08;19.80;99.90
15959;DHT22;8078;47.822;9.402;2023-07-29T09:25:36;20.20;99.90
15959;DHT22;8078;47.822;9.402;2023-07-29T09:28:08;20.20;99.90
15959;DHT22;8078;47.822;9.402;2023-07-29T09:30:34;20.20;99.90
15959;DHT22;8078;47.822;9.402;2023-07-29T09:32:59;20.20;99.90
15959;DHT22;8078;47.822;9.402;2023-07-29T09:35:29;20.60;99.90
15959;DHT22;8078;47.822;9.402;2023-07-29T09:37:56;20.40;99.90
15959;DHT22;8078;47.822;9.402;2023-07-29T09:40:21;20.70;99.90
15959;DHT22;8078;47.822;9.402;2023-07-29T09:42:51;20.50;99.90
15959;DHT22;8078;47.822;9.402;2023-07-29T09:45:25;20.70;99.90
15959;DHT22;8078;47.822;9.402;2023-07-29T09:47:52;20.50;99.90
15959;DHT22;8078;47.822;9.402;2023-07-29T09:50:18;20.40;99.90
15959;DHT22;8078;47.822;9.402;2023-07-29T09:52:44;20.40;99.90
15959;DHT22;8078;47.822;9.402;2023-07-29T09:55:12;20.60;99.90
15959;DHT22;8078;47.822;9.402;2023-07-29T09:57:39;20.60;99.90
15959;DHT22;8078;47.822;9.402;2023-07-29T10:00:05;20.50;99.90
15959;DHT22;8078;47.822;9.402;2023-07-29T10:02:40;20.60;99.90
15959;DHT22;8078;47.822;9.402;2023-07-29T10:05:06;20.70;99.90
15959;DHT22;8078;47.822;9.402;2023-07-29T10:07:34;21.00;99.90
15959;DHT22;8078;47.822;9.402;2023-07-29T10:10:01;20.70;99.90
15959;DHT22;8078;47.822;9.402;2023-07-29T10:12:29;20.90;99.90
15959;DHT22;8078;47.822;9.402;2023-07-29T10:14:59;21.10;99.90
15959;DHT22;8078;47.822;9.402;2023-07-29T10:17:26;21.20;99.90
15959;DHT22;8078;47.822;9.402;2023-07-29T10:19:53;21.40;99.90
15959;DHT22;8078;47.822;9.402;2023-07-29T10:22:20;21.60;99.90
15959;DHT22;8078;47.822;9.402;2023-07-29T10:24:47;21.50;99.90
15959;DHT22;8078;47.822;9.402;2023-07-29T10:27:17;21.20;99.90
15959;DHT22;8078;47.822;9.402;2023-07-29T10:29:44;21.00;99.90
15959;DHT22;8078;47.822;9.402;2023-07-29T10:32:11;20.60;99.90
15959;DHT22;8078;47.822;9.402;2023-07-29T10:34:37;20.80;99.90
15959;DHT22;8078;47.822;9.402;2023-07-29T10:37:03;21.20;99.90
15959;DHT22;8078;47.822;9.402;2023-07-29T10:39:38;21.10;99.90
15959;DHT22;8078;47.822;9.402;2023-07-29T10:42:06;21.20;99.90
15959;DHT22;8078;47.822;9.402;2023-07-29T10:47:31;20.90;99.90
15959;DHT22;8078;47.822;9.402;2023-07-29T10:49:59;20.90;99.90
15959;DHT22;8078;47.822;9.402;2023-07-29T10:52:39;20.70;99.90
15959;DHT22;8078;47.822;9.402;2023-07-29T10:55:27;21.10;99.90
15959;DHT22;8078;47.822;9.402;2023-07-29T10:58:05;21.50;99.90
15959;DHT22;8078;47.822;9.402;2023-07-29T11:00:31;21.30;99.90
15959;DHT22;8078;47.822;9.402;2023-07-29T11:03:02;21.90;99.90
15959;DHT22;8078;47.822;9.402;2023-07-29T11:05:51;22.10;99.90
15959;DHT22;8078;47.822;9.402;2023-07-29T11:11:03;22.10;99.90
15959;DHT22;8078;47.822;9.402;2023-07-29T11:13:30;21.70;99.90
15959;DHT22;8078;47.822;9.402;2023-07-29T11:15:57;21.60;99.90
15959;DHT22;8078;47.822;9.402;2023-07-29T11:18:30;21.70;99.90
15959;DHT22;8078;47.822;9.402;2023-07-29T11:20:56;22.10;99.90
15959;DHT22;8078;47.822;9.402;2023-07-29T11:23:33;21.90;99.90
15959;DHT22;8078;47.822;9.402;2023-07-29T11:26:00;22.40;99.90
15959;DHT22;8078;47.822;9.402;2023-07-29T11:28:27;22.80;99.90
15959;DHT22;8078;47.822;9.402;2023-07-29T11:30:55;22.40;99.90
15959;DHT22;8078;47.822;9.402;2023-07-29T11:33:22;22.60;99.90
15959;DHT22;8078;47.822;9.402;2023-07-29T11:35:47;22.60;99.90
15959;DHT22;8078;47.822;9.402;2023-07-29T11:38:20;22.40;99.90
15959;DHT22;8078;47.822;9.402;2023-07-29T11:40:56;22.40;99.90
15959;DHT22;8078;47.822;9.402;2023-07-29T11:43:22;22.50;99.90
15959;DHT22;8078;47.822;9.402;2023-07-29T11:45:47;22.50;99.90
15959;DHT22;8078;47.822;9.402;2023-07-29T11:48:13;22.50;99.90
15959;DHT22;8078;47.822;9.402;2023-07-29T11:50:39;22.90;99.90
15959;DHT22;8078;47.822;9.402;2023-07-29T11:53:05;22.70;99.90
15959;DHT22;8078;47.822;9.402;2023-07-29T11:55:30;22.50;99.90
15959;DHT22;8078;47.822;9.402;2023-07-29T11:57:56;22.40;99.90
15959;DHT22;8078;47.822;9.402;2023-07-29T12:00:22;22.50;99.90
15959;DHT22;8078;47.822;9.402;2023-07-29T12:02:49;22.60;99.90
15959;DHT22;8078;47.822;9.402;2023-07-29T12:05:14;22.50;99.90
15959;DHT22;8078;47.822;9.402;2023-07-29T12:07:42;22.70;99.90
15959;DHT22;8078;47.822;9.402;2023-07-29T12:10:09;22.50;99.90
15959;DHT22;8078;47.822;9.402;2023-07-29T12:12:45;22.30;99.90
15959;DHT22;8078;47.822;9.402;2023-07-29T12:15:11;22.20;99.90
15959;DHT22;8078;47.822;9.402;2023-07-29T12:17:41;22.00;99.90
15959;DHT22;8078;47.822;9.402;2023-07-29T12:20:09;22.00;99.90
15959;DHT22;8078;47.822;9.402;2023-07-29T12:22:35;22.00;99.90
15959;DHT22;8078;47.822;9.402;2023-07-29T12:25:01;22.50;99.90
15959;DHT22;8078;47.822;9.402;2023-07-29T12:27:30;23.00;99.90
15959;DHT22;8078;47.822;9.402;2023-07-29T12:29:57;22.70;99.90
15959;DHT22;8078;47.822;9.402;2023-07-29T12:32:25;22.80;99.90
15959;DHT22;8078;47.822;9.402;2023-07-29T12:34:53;22.60;99.90
15959;DHT22;8078;47.822;9.402;2023-07-29T12:37:19;22.20;99.90
15959;DHT22;8078;47.822;9.402;2023-07-29T12:39:44;21.80;99.90
15959;DHT22;8078;47.822;9.402;2023-07-29T12:42:10;21.60;99.90
15959;DHT22;8078;47.822;9.402;2023-07-29T12:44:36;21.40;99.90
15959;DHT22;8078;47.822;9.402;2023-07-29T12:47:03;21.20;99.90
15959;DHT22;8078;47.822;9.402;2023-07-29T12:49:30;21.00;99.90
15959;DHT22;8078;47.822;9.402;2023-07-29T12:51:59;20.80;99.90
15959;DHT22;8078;47.822;9.402;2023-07-29T12:54:25;20.40;99.90
15959;DHT22;8078;47.822;9.402;2023-07-29T12:56:51;19.90;99.90
15959;DHT22;8078;47.822;9.402;2023-07-29T13:01:43;17.70;99.90
15959;DHT22;8078;47.822;9.402;2023-07-29T13:04:12;16.00;1.00
15959;DHT22;8078;47.822;9.402;2023-07-29T13:06:37;15.60;1.00
15959;DHT22;8078;47.822;9.402;2023-07-29T13:09:03;15.70;1.00
15959;DHT22;8078;47.822;9.402;2023-07-29T13:11:30;15.90;99.90
15959;DHT22;8078;47.822;9.402;2023-07-29T13:13:57;17.30;1.00
15959;DHT22;8078;47.822;9.402;2023-07-29T13:16:23;18.10;1.00
15959;DHT22;8078;47.822;9.402;2023-07-29T13:18:50;18.10;99.90
15959;DHT22;8078;47.822;9.402;2023-07-29T13:21:15;18.10;99.90
15959;DHT22;8078;47.822;9.402;2023-07-29T13:23:41;18.10;1.00
15959;DHT22;8078;47.822;9.402;2023-07-29T13:26:06;18.00;99.90
15959;DHT22;8078;47.822;9.402;2023-07-29T13:28:32;18.00;1.00
15959;DHT22;8078;47.822;9.402;2023-07-29T13:30:57;18.10;1.00
15959;DHT22;8078;47.822;9.402;2023-07-29T13:33:23;18.00;99.90
15959;DHT22;8078;47.822;9.402;2023-07-29T13:35:49;18.00;67.40
15959;DHT22;8078;47.822;9.402;2023-07-29T13:38:14;18.10;1.00
15959;DHT22;8078;47.822;9.402;2023-07-29T13:40:40;18.10;1.00
15959;DHT22;8078;47.822;9.402;2023-07-29T13:43:05;18.10;99.90
15959;DHT22;8078;47.822;9.402;2023-07-29T13:45:31;18.20;1.00
15959;DHT22;8078;47.822;9.402;2023-07-29T13:47:57;18.20;1.00
15959;DHT22;8078;47.822;9.402;2023-07-29T13:50:22;18.10;99.90
15959;DHT22;8078;47.822;9.402;2023-07-29T13:52:48;18.10;1.00
15959;DHT22;8078;47.822;9.402;2023-07-29T13:55:13;18.00;1.00
15959;DHT22;8078;47.822;9.402;2023-07-29T13:57:39;18.00;23.00
15959;DHT22;8078;47.822;9.402;2023-07-29T14:00:07;17.90;99.90
15959;DHT22;8078;47.822;9.402;2023-07-29T14:02:33;17.90;1.00
15959;DHT22;8078;47.822;9.402;2023-07-29T14:04:59;17.80;1.00
15959;DHT22;8078;47.822;9.402;2023-07-29T14:07:24;17.80;99.90
15959;DHT22;8078;47.822;9.402;2023-07-29T14:09:50;17.70;1.00
15959;DHT22;8078;47.822;9.402;2023-07-29T14:12:16;17.60;99.90
15959;DHT22;8078;47.822;9.402;2023-07-29T14:14:42;17.50;99.90
15959;DHT22;8078;47.822;9.402;2023-07-29T14:17:07;17.30;1.00
15959;DHT22;8078;47.822;9.402;2023-07-29T14:19:34;17.20;99.90
15959;DHT22;8078;47.822;9.402;2023-07-29T14:22:00;17.10;99.90
15959;DHT22;8078;47.822;9.402;2023-07-29T14:24:25;17.00;99.90
15959;DHT22;8078;47.822;9.402;2023-07-29T14:26:51;17.20;99.90
15959;DHT22;8078;47.822;9.402;2023-07-29T14:29:16;17.20;99.90
15959;DHT22;8078;47.822;9.402;2023-07-29T14:31:42;17.10;99.90
15959;DHT22;8078;47.822;9.402;2023-07-29T14:34:10;16.90;99.90
15959;DHT22;8078;47.822;9.402;2023-07-29T14:36:36;16.80;99.90
15959;DHT22;8078;47.822;9.402;2023-07-29T14:39:01;16.80;99.90
15959;DHT22;8078;47.822;9.402;2023-07-29T14:41:27;16.80;99.90
15959;DHT22;8078;47.822;9.402;2023-07-29T14:43:53;16.80;99.90
15959;DHT22;8078;47.822;9.402;2023-07-29T14:46:18;16.90;99.90
15959;DHT22;8078;47.822;9.402;2023-07-29T14:48:44;16.90;99.90
15959;DHT22;8078;47.822;9.402;2023-07-29T14:51:10;16.80;99.90
15959;DHT22;8078;47.822;9.402;2023-07-29T14:53:36;16.80;99.90
15959;DHT22;8078;47.822;9.402;2023-07-29T14:56:01;16.90;99.90
15959;DHT22;8078;47.822;9.402;2023-07-29T14:58:27;16.80;99.90
15959;DHT22;8078;47.822;9.402;2023-07-29T15:00:53;16.70;99.90
15959;DHT22;8078;47.822;9.402;2023-07-29T15:03:18;16.70;99.90
15959;DHT22;8078;47.822;9.402;2023-07-29T15:05:44;16.70;99.90
15959;DHT22;8078;47.822;9.402;2023-07-29T15:08:09;16.60;99.90
15959;DHT22;8078;47.822;9.402;2023-07-29T15:10:35;16.40;1.00
15959;DHT22;8078;47.822;9.402;2023-07-29T15:13:02;16.30;99.90
15959;DHT22;8078;47.822;9.402;2023-07-29T15:15:28;16.30;99.90
15959;DHT22;8078;47.822;9.402;2023-07-29T15:17:54;16.30;99.90
15959;DHT22;8078;47.822;9.402;2023-07-29T15:20:19;16.20;99.90
15959;DHT22;8078;47.822;9.402;2023-07-29T15:22:45;16.20;99.90
15959;DHT22;8078;47.822;9.402;2023-07-29T15:25:10;16.20;99.90
15959;DHT22;8078;47.822;9.402;2023-07-29T15:27:37;16.20;99.90
15959;DHT22;8078;47.822;9.402;2023-07-29T15:30:03;16.20;99.90
15959;DHT22;8078;47.822;9.402;2023-07-29T15:32:28;16.30;99.90
15959;DHT22;8078;47.822;9.402;2023-07-29T15:34:54;16.30;99.90
15959;DHT22;8078;47.822;9.402;2023-07-29T15:37:20;16.30;99.90
15959;DHT22;8078;47.822;9.402;2023-07-29T15:39:45;16.30;99.90
15959;DHT22;8078;47.822;9.402;2023-07-29T15:42:11;16.30;99.90
15959;DHT22;8078;47.822;9.402;2023-07-29T15:44:36;16.30;99.90
15959;DHT22;8078;47.822;9.402;2023-07-29T15:47:05;16.40;99.90
15959;DHT22;8078;47.822;9.402;2023-07-29T15:49:30;16.40;99.90
15959;DHT22;8078;47.822;9.402;2023-07-29T15:51:56;16.40;99.90
15959;DHT22;8078;47.822;9.402;2023-07-29T15:54:21;16.30;99.90
15959;DHT22;8078;47.822;9.402;2023-07-29T15:56:47;16.30;99.90